This is the latest recevied weather packets stored in our database for station/object BAGASKAR. If no packets are shown the sender has not sent any weather packets the latest 10 day(s).
| Time | Temp. | Humidity | Pressure | Rain* | Wind** | Luminosity | Snow |
|---|---|---|---|---|---|---|---|
| 1777884432 | 7.22° C | 97% | 1004.5 hPa | - | - | - | - |
| 1777883233 | 6.67° C | 100% | 1004.4 hPa | - | - | - | - |
| 1777882032 | 7.22° C | 87% | 1004.6 hPa | - | - | - | - |
| 1777880832 | 7.22° C | 85% | 1004.9 hPa | - | - | - | - |
| 1777879632 | 7.22° C | 87% | 1004.7 hPa | - | - | - | - |
| 1777878432 | 7.78° C | 76% | 1004.5 hPa | - | - | - | - |
| 1777877232 | 7.78° C | 64% | 1004.2 hPa | - | - | - | - |
| 1777876032 | 7.78° C | 64% | 1004.6 hPa | - | - | - | - |
| 1777874831 | 8.89° C | 57% | 1004.8 hPa | - | - | - | - |
| 1777873632 | 8.33° C | 64% | 1005.1 hPa | - | - | - | - |
| 1777872432 | 8.33° C | 58% | 1005.2 hPa | - | - | - | - |
| 1777871231 | 7.78° C | 67% | 1005.4 hPa | - | - | - | - |
| 1777870031 | 7.78° C | 66% | 1005.6 hPa | - | - | - | - |
| 1777868831 | 6.67° C | 78% | 1005.8 hPa | - | - | - | - |
| 1777867631 | 6.11° C | 78% | 1005.9 hPa | - | - | - | - |
| 1777866431 | 6.11° C | 79% | 1006 hPa | - | - | - | - |
| 1777865232 | 6.11° C | 83% | 1006 hPa | - | - | - | - |
| 1777864032 | 5.56° C | 80% | 1006.2 hPa | - | - | - | - |
| 1777862831 | 6.11° C | 79% | 1006.3 hPa | - | - | - | - |
| 1777861631 | 5.56° C | 83% | 1006.4 hPa | - | - | - | - |
| 1777860431 | 6.67° C | 78% | 1006.5 hPa | - | - | - | - |
| 1777859231 | 6.67° C | 84% | 1006.7 hPa | - | - | - | - |
| 1777858031 | 6.67° C | 89% | 1006.8 hPa | - | - | - | - |
| 1777856831 | 6.67° C | 97% | 1006.9 hPa | - | - | - | - |
| 1777855631 | 6.67° C | 96% | 1006.9 hPa | - | - | - | - |
* Rain since midnight (hover to see other rain measurements)
** Current wind speed in m/s (hover to see current wind gust speed)